Decoded Metar for YCIN (CURTIN/DERBY in _UNIDENTIFIED) (IATA:N/A) | Meteo·Mobile Aviation Weather
aviador You're here:

YCIN Decoded Metar

CURTIN/DERBY in _UNIDENTIFIED
Report Time2018-10-23 11:00:00
UTC Time2018-10-23 11:20:29
Flight Rules vfr VFR
Wind320° at 05 kt
W.Decomp.*RWY 29: 4.4 kt HW 2.3 kt RCW
W.Rank320° ranks 8
Current wind is below 320° avg. (5.9)
Visibility9999 m
Phenomena:N/A
Clouds:N/A
Expected CloudBase > 3,600 ft AGL from Temp-Dew spread
CeilingNone
Temp30°C (ISA +16)
Dew Point21°C (59% RH)
Heat Index32.6°C
QNH1007 hPa
Density Alt2,615 ft
Elevation299 ft
Report Wrong Elevation
Raw Report
YCIN 231100Z AUTO 32005KT 9999 // NCD 30/21 Q1007 RF00.0/000.0=

Extra information for YCIN:More info

Metar Taf Metar & Taf Last 4 Metars F.Rules Stats Wind Profile Meteogram Temp Stats Airport Information Weather charts Add Link Nearby VenuesMetar ALERT Operation Metar Decoded Social comments